F/V Harvestor — WDC8229 — position and weather

sailwx.info

Track history (hours):
 
Tides and Currents Weather Stations Pressure Air Temp Water Temp Dewpoint Dewpoint Depression Visibility Wind Speed Wind Dir Waves Ship Positions

F/V Harvestor

More information available from US FCC via Universal Licensing System and Coast Guard Vessel Documentation Center.

Last reported at 2014-Sep-16 10:33 UTC. Time now 2014-Sep-16 11:32 UTC.
Position N 48°24' W 122°34'.

Length 40 m.

Type: Fishing. MMSI: 367083650.

Date/timePositionNaut miles runAvg speedWind from/ knotsBaromVisibWave heightAir tempDewpointWater temp
2014-Sep-16 10:33N 48°24' W 122°34'0 0.0
2014-Sep-16 09:33N 48°24' W 122°34'0 0.0
2014-Sep-16 08:33N 48°24' W 122°34'0 0.0
2014-Sep-16 07:33N 48°24' W 122°34'0 0.0
2014-Sep-16 06:33N 48°24' W 122°34'0 0.0
2014-Sep-16 05:33N 48°24' W 122°34'0 0.0
2014-Sep-16 04:33N 48°24' W 122°34'0 0.0
2014-Sep-16 03:32N 48°24' W 122°34'6 6.3
2014-Sep-16 02:33N 48°19' W 122°30'8 8.0
2014-Sep-16 01:30N 48°10' W 122°32'7 7.7
2014-Sep-16 00:33N 48°05' W 122°26'8 7.6
2014-Sep-15 23:30N 47°58' W 122°20'1 8.0
2014-Sep-15 23:22N 47°57' W 122°21'6 7.7
2014-Sep-15 22:33N 47°50' W 122°23'2 8.5
2014-Sep-15 22:22N 47°49' W 122°24'7 8.5
2014-Sep-15 21:33N 47°42' W 122°26'5 4.3
2014-Sep-15 20:26N 47°38' W 122°23'0 0.0
2014-Sep-15 19:33N 47°38' W 122°23'0 0.0
2014-Sep-15 18:26N 47°38' W 122°23'0 0.0
2014-Sep-15 16:33N 47°38' W 122°23'0 0.0
2014-Sep-15 16:25N 47°38' W 122°23'0 0.0
2014-Sep-15 15:33N 47°38' W 122°23'0 0.0
2014-Sep-15 15:30N 47°38' W 122°23'0 0.0
2014-Sep-15 14:33N 47°38' W 122°23'0 0.0
2014-Sep-15 14:30N 47°38' W 122°23'0 0.0
2014-Sep-15 13:33N 47°38' W 122°23'0 0.0
2014-Sep-15 13:25N 47°38' W 122°23'0 0.0
2014-Sep-15 12:33N 47°38' W 122°23'0 0.0
2014-Sep-15 12:30N 47°38' W 122°23'0 0.0
2014-Sep-15 11:33N 47°38' W 122°23'0 0.0
2014-Sep-15 11:30N 47°38' W 122°23'0 0.0
2014-Sep-15 10:33N 47°38' W 122°23'0 0.0
2014-Sep-15 10:30N 47°38' W 122°23'0 0.0
2014-Sep-15 09:33N 47°38' W 122°23'0 0.0
2014-Sep-15 09:30N 47°38' W 122°23'0 0.0
2014-Sep-15 08:33N 47°38' W 122°23'0 0.0
2014-Sep-15 08:29N 47°38' W 122°23'0 0.0
2014-Sep-15 07:33N 47°38' W 122°23'0 0.0
2014-Sep-15 07:30N 47°38' W 122°23'0 0.0
2014-Sep-15 06:33N 47°38' W 122°23'0 0.0
2014-Sep-15 06:30N 47°38' W 122°23'0 0.0
2014-Sep-15 06:00N 47°38' W 122°23'0 0.0
2014-Sep-15 05:33N 47°38' W 122°23'0 0.0
2014-Sep-15 04:33N 47°38' W 122°23'0 0.0
2014-Sep-15 04:29N 47°38' W 122°23'0 0.0
2014-Sep-15 03:33N 47°38' W 122°23'0 0.0
2014-Sep-15 03:29N 47°38' W 122°23'0 0.0
2014-Sep-15 02:33N 47°38' W 122°23'0 0.0
2014-Sep-15 02:29N 47°38' W 122°23'0 0.0
2014-Sep-15 01:33N 47°38' W 122°23'0 0.1
2014-Sep-15 01:28N 47°38' W 122°23'0 0.0
2014-Sep-15 00:33N 47°38' W 122°23'0 0.0
2014-Sep-15 00:29N 47°38' W 122°23'0 0.0
2014-Sep-14 23:33N 47°38' W 122°23'0 0.0
2014-Sep-14 23:29N 47°38' W 122°23'2 2.4
2014-Sep-14 22:33N 47°36' W 122°25'1 7.7
2014-Sep-14 22:29N 47°36' W 122°26'4 4.5
2014-Sep-14 21:33N 47°35' W 122°32'0 0.0
2014-Sep-14 21:23N 47°35' W 122°32'0 0.0
2014-Sep-14 20:33N 47°35' W 122°32'0 0.0
2014-Sep-14 20:33N 47°35' W 122°32'0 0.0
2014-Sep-14 19:33N 47°35' W 122°32'0 0.0
2014-Sep-14 19:33N 47°35' W 122°32'0 0.0
2014-Sep-14 18:33N 47°35' W 122°32'0 0.0
2014-Sep-14 18:33N 47°35' W 122°32'0 0.0
2014-Sep-14 17:33N 47°35' W 122°32'0 0.0
2014-Sep-14 17:33N 47°35' W 122°32'0 0.0
2014-Sep-14 16:33N 47°35' W 122°32'0 0.0
2014-Sep-14 15:33N 47°35' W 122°32'0 0.0
2014-Sep-14 14:33N 47°35' W 122°32'6 5.9
2014-Sep-14 13:32N 47°37' W 122°24'1 0.9
2014-Sep-14 12:33N 47°38' W 122°23'0 0.0
2014-Sep-14 11:33N 47°38' W 122°23'0 0.0
2014-Sep-14 10:33N 47°38' W 122°23'0 0.0
2014-Sep-14 09:33N 47°38' W 122°23'0 0.0
2014-Sep-14 08:33N 47°38' W 122°23'0 0.0
2014-Sep-14 07:33N 47°38' W 122°23'0 0.0
2014-Sep-14 06:33N 47°38' W 122°23'0 0.0
2014-Sep-14 05:33N 47°38' W 122°23'0 0.0
2014-Sep-14 04:33N 47°38' W 122°23'0 0.0
2014-Sep-14 03:33N 47°38' W 122°23'0 0.0
2014-Sep-14 02:33N 47°38' W 122°23'0 0.0
2014-Sep-14 01:33N 47°38' W 122°23'0 0.0
2014-Sep-13 21:33N 47°38' W 122°23'0 0.0
2014-Sep-13 20:33N 47°38' W 122°23'0 0.0
2014-Sep-13 19:33N 47°38' W 122°23'0 0.0
2014-Sep-13 18:33N 47°38' W 122°23'0 0.0
2014-Sep-13 17:33N 47°38' W 122°23'0 0.0
2014-Sep-13 16:33N 47°38' W 122°23'0 0.0
2014-Sep-13 15:33N 47°38' W 122°23'0 0.0
2014-Sep-13 14:33N 47°38' W 122°23'0 0.0
2014-Sep-13 13:33N 47°38' W 122°23'0 0.0
2014-Sep-13 12:33N 47°38' W 122°23'0 0.0
2014-Sep-13 11:33N 47°38' W 122°23'0 0.0
2014-Sep-13 10:33N 47°38' W 122°23'0 0.0
2014-Sep-13 09:33N 47°38' W 122°23'0 0.0
2014-Sep-13 08:33N 47°38' W 122°23'0 0.0
2014-Sep-13 07:33N 47°38' W 122°23'0 0.0
2014-Sep-13 06:33N 47°38' W 122°23'0 0.0
2014-Sep-13 05:33N 47°38' W 122°23'0 0.0
2014-Sep-13 04:33N 47°38' W 122°23'0 0.0
2014-Sep-13 03:33N 47°38' W 122°23'0 0.0
2014-Sep-13 02:33N 47°38' W 122°23'0 0.0
2014-Sep-13 01:33N 47°38' W 122°23'0 0.0
2014-Sep-13 00:33N 47°38' W 122°23'0 0.0
2014-Sep-12 23:33N 47°38' W 122°23'0 0.0
2014-Sep-12 22:33N 47°38' W 122°23'0 0.0
2014-Sep-12 21:33N 47°38' W 122°23'0 0.0
2014-Sep-12 20:33N 47°38' W 122°23'5 4.9
2014-Sep-12 19:33N 47°35' W 122°28'2 2.1
2014-Sep-12 18:33N 47°34' W 122°31'7 6.7
2014-Sep-12 17:33N 47°38' W 122°23'0 0.1
2014-Sep-12 16:33N 47°38' W 122°23'0 0.0
2014-Sep-12 15:33N 47°38' W 122°23'0 0.0
2014-Sep-12 14:33N 47°38' W 122°23'0 0.0
2014-Sep-12 13:33N 47°38' W 122°23'0 0.0
2014-Sep-12 12:33N 47°38' W 122°23'0 0.0
2014-Sep-12 11:33N 47°38' W 122°23'0 0.0
2014-Sep-12 10:33N 47°38' W 122°23'0 0.0
2014-Sep-12 09:33N 47°38' W 122°23'0 0.0
2014-Sep-12 08:33N 47°38' W 122°23'0 0.0
2014-Sep-12 07:33N 47°38' W 122°23'0 0.0
2014-Sep-12 06:33N 47°38' W 122°23'0 0.0
2014-Sep-12 05:33N 47°38' W 122°23'0 0.0
2014-Sep-12 04:33N 47°38' W 122°23'0 0.0
2014-Sep-12 03:33N 47°38' W 122°23'0 0.0
2014-Sep-12 02:33N 47°38' W 122°23'0 0.0
2014-Sep-12 01:33N 47°38' W 122°23'0 0.0
2014-Sep-12 00:33N 47°38' W 122°23'5 5.1
2014-Sep-11 23:33N 47°35' W 122°29'2 1.9
2014-Sep-11 22:33N 47°35' W 122°32'0 0.0
2014-Sep-11 21:33N 47°35' W 122°32'0 0.0
2014-Sep-11 20:33N 47°35' W 122°32'0 0.0
2014-Sep-11 19:32N 47°35' W 122°32'0 0.0
2014-Sep-11 18:33N 47°35' W 122°32'0 0.0
2014-Sep-11 17:33N 47°35' W 122°32'0 0.0
2014-Sep-11 16:33N 47°35' W 122°32'0 0.0
2014-Sep-11 15:33N 47°35' W 122°32'0 0.0
2014-Sep-11 14:33N 47°35' W 122°32'3 2.6
2014-Sep-11 13:33N 47°35' W 122°28'4 4.4
2014-Sep-11 12:33N 47°38' W 122°23'0 0.0
2014-Sep-11 11:33N 47°38' W 122°23'0 0.0
2014-Sep-11 10:33N 47°38' W 122°23'0 0.0
2014-Sep-11 09:33N 47°38' W 122°23'0 0.0
2014-Sep-11 08:33N 47°38' W 122°23'0 0.0
2014-Sep-11 07:33N 47°38' W 122°23'0 0.0
2014-Sep-11 06:33N 47°38' W 122°23'0 0.0
2014-Sep-11 05:33N 47°38' W 122°23'0 0.0
2014-Sep-11 04:33N 47°38' W 122°23'0 0.0
2014-Sep-11 03:33N 47°38' W 122°23'0 0.0
2014-Sep-11 02:33N 47°38' W 122°23'0 0.0
2014-Sep-11 01:33N 47°38' W 122°23'0 0.0
2014-Sep-11 00:33N 47°38' W 122°23'0 0.0
2014-Sep-10 23:33N 47°38' W 122°23'0 0.0
2014-Sep-10 22:33N 47°38' W 122°23'0 0.0
2014-Sep-10 21:33N 47°38' W 122°23'0 0.0
2014-Sep-10 20:33N 47°38' W 122°23'0 0.0
2014-Sep-10 19:33N 47°38' W 122°23'0 0.0
2014-Sep-10 18:33N 47°38' W 122°23'0 0.0
2014-Sep-10 17:33N 47°38' W 122°23'0 0.1
2014-Sep-10 16:33N 47°38' W 122°23'0 0.0
2014-Sep-10 15:33N 47°38' W 122°23'0 0.0
2014-Sep-10 14:33N 47°38' W 122°23'0 0.0
2014-Sep-10 13:33N 47°38' W 122°23'0 0.0
2014-Sep-10 12:33N 47°38' W 122°23'0 0.0
2014-Sep-10 11:33N 47°38' W 122°23'0 0.0
2014-Sep-10 10:34N 47°38' W 122°23'0 0.0
2014-Sep-10 09:33N 47°38' W 122°23'0 0.0
2014-Sep-10 08:33N 47°38' W 122°23'0 0.0
2014-Sep-10 07:33N 47°38' W 122°23'0 0.0
2014-Sep-10 06:33N 47°38' W 122°23'0 0.0
2014-Sep-10 05:33N 47°38' W 122°23'0 0.0
2014-Sep-10 04:33N 47°38' W 122°23'0 0.0
2014-Sep-10 03:33N 47°38' W 122°23'0 0.0
2014-Sep-10 02:33N 47°38' W 122°23'0 0.0
2014-Sep-10 01:33N 47°38' W 122°23'0 0.1
2014-Sep-10 00:33N 47°38' W 122°23'0 0.0
2014-Sep-09 23:33N 47°38' W 122°23'0 0.0
2014-Sep-09 22:33N 47°38' W 122°23'4 3.5
2014-Sep-09 21:33N 47°36' W 122°27'3 3.3
2014-Sep-09 20:33N 47°35' W 122°32'0 0.0
2014-Sep-09 19:33N 47°35' W 122°32'0 0.0
2014-Sep-09 18:33N 47°35' W 122°32'0 0.0
2014-Sep-09 17:33N 47°35' W 122°32'0 0.0
2014-Sep-09 16:33N 47°35' W 122°32'0 0.0
2014-Sep-09 15:33N 47°35' W 122°32'0 0.0
2014-Sep-09 14:33N 47°35' W 122°32'3 2.7
2014-Sep-09 13:33N 47°35' W 122°28'4 4.1
2014-Sep-09 12:33N 47°38' W 122°23'0 0.0
2014-Sep-09 11:33N 47°38' W 122°23'0 0.0
2014-Sep-09 10:33N 47°38' W 122°23'0 0.0
2014-Sep-09 09:33N 47°38' W 122°23'0 0.0
2014-Sep-09 08:33N 47°38' W 122°23'0 0.0
2014-Sep-09 07:33N 47°38' W 122°23'0 0.0
2014-Sep-09 06:32N 47°38' W 122°23'0 0.0
2014-Sep-09 05:33N 47°38' W 122°23'0 0.0
2014-Sep-09 04:33N 47°38' W 122°23'0 0.0
2014-Sep-09 03:33N 47°38' W 122°23'0 0.0
2014-Sep-09 02:33N 47°38' W 122°23'0 0.0
2014-Sep-09 01:33N 47°38' W 122°23'0 0.0
2014-Sep-09 00:33N 47°38' W 122°23'0 0.0
2014-Sep-08 23:33N 47°38' W 122°23'0 0.0
2014-Sep-08 22:33N 47°38' W 122°23'0 0.0
2014-Sep-08 21:33N 47°38' W 122°23'0 0.0
2014-Sep-08 20:33N 47°38' W 122°23'0 0.0
2014-Sep-08 19:33N 47°38' W 122°23'0 0.0
2014-Sep-08 18:33N 47°38' W 122°23'0 0.0
2014-Sep-08 17:33N 47°38' W 122°23'0 0.0
2014-Sep-08 16:33N 47°38' W 122°23'0 0.1
2014-Sep-08 15:33N 47°38' W 122°23'0 0.0
2014-Sep-08 14:33N 47°38' W 122°23'0 0.0
2014-Sep-08 13:33N 47°38' W 122°23'0 0.0
2014-Sep-08 12:33N 47°38' W 122°23'0 0.0
2014-Sep-08 11:33N 47°38' W 122°23'0 0.0
2014-Sep-08 10:33N 47°38' W 122°23'0 0.0
2014-Sep-08 09:33N 47°38' W 122°23'0 0.0
2014-Sep-08 08:33N 47°38' W 122°23'0 0.0
2014-Sep-08 07:33N 47°38' W 122°23'0 0.0
2014-Sep-08 06:33N 47°38' W 122°23'0 0.0
2014-Sep-08 05:33N 47°38' W 122°23'0 0.0
2014-Sep-08 04:33N 47°38' W 122°23'0 0.0
2014-Sep-08 03:33N 47°38' W 122°23'0 0.0
2014-Sep-08 02:33N 47°38' W 122°23'0 0.0
2014-Sep-08 01:33N 47°38' W 122°23'0 0.0
2014-Sep-08 00:33N 47°38' W 122°23'0 0.0
2014-Sep-07 23:33N 47°38' W 122°23'0 0.0
2014-Sep-07 22:34N 47°38' W 122°23'5 5.0
2014-Sep-07 21:34N 47°35' W 122°29'2 2.0
2014-Sep-07 20:33N 47°35' W 122°32'0 0.0
2014-Sep-07 19:33N 47°35' W 122°32'0 0.0
2014-Sep-07 18:33N 47°35' W 122°32'0 0.0
2014-Sep-07 17:33N 47°35' W 122°32'0 0.0
2014-Sep-07 16:33N 47°35' W 122°32'0 0.0
2014-Sep-07 15:33N 47°35' W 122°32'0 0.0
2014-Sep-07 14:33N 47°35' W 122°32'2 2.1
2014-Sep-07 13:33N 47°35' W 122°29'5 4.7
2014-Sep-07 12:32N 47°38' W 122°23'0 0.0
2014-Sep-07 11:33N 47°38' W 122°23'0 0.0
2014-Sep-07 10:33N 47°38' W 122°23'0 0.0
2014-Sep-07 09:33N 47°38' W 122°23'0 0.0
2014-Sep-07 08:33N 47°38' W 122°23'0 0.0
2014-Sep-07 07:33N 47°38' W 122°23'0 0.0
2014-Sep-07 06:33N 47°38' W 122°23'0 0.0
2014-Sep-07 05:33N 47°38' W 122°23'0 0.0
2014-Sep-07 04:33N 47°38' W 122°23'0 0.0
2014-Sep-07 03:33N 47°38' W 122°23'0 0.0
2014-Sep-07 02:33N 47°38' W 122°23'0 0.0
2014-Sep-07 01:33N 47°38' W 122°23'0 0.0
2014-Sep-07 00:33N 47°38' W 122°23'0 0.0
2014-Sep-06 23:33N 47°38' W 122°23'0 0.0
2014-Sep-06 22:33N 47°38' W 122°23'0 0.0
2014-Sep-06 21:33N 47°38' W 122°23'0 0.0
2014-Sep-06 20:33N 47°38' W 122°23'0 0.0
2014-Sep-06 19:33N 47°38' W 122°23'0 0.0
2014-Sep-06 18:33N 47°38' W 122°23'0 0.0
2014-Sep-06 17:33N 47°38' W 122°23'0 0.0
2014-Sep-06 16:33N 47°38' W 122°23'0 0.0
2014-Sep-06 15:33N 47°38' W 122°23'0 0.0
2014-Sep-06 14:33N 47°38' W 122°23'0 0.0
2014-Sep-06 13:33N 47°38' W 122°23'0 0.0
2014-Sep-06 12:33N 47°38' W 122°23'0 0.0
2014-Sep-06 11:33N 47°38' W 122°23'0 0.0
2014-Sep-06 10:33N 47°38' W 122°23'  
Track history (hours):
 
Tides and Currents Weather Stations Pressure Air Temp Water Temp Dewpoint Dewpoint Depression Visibility Wind Speed Wind Dir Waves Ship Positions

F/V Harvestor

More information available from US FCC via Universal Licensing System and Coast Guard Vessel Documentation Center.

Last reported at 2014-Sep-16 10:33 UTC. Time now 2014-Sep-16 11:32 UTC.
Position N 48°24' W 122°34'.

Length 40 m.

Type: Fishing. MMSI: 367083650.

Date/timePositionNaut miles runAvg speedWind from/ knotsBaromVisibWave heightAir tempDewpointWater temp
2014-Sep-16 10:33N 48°24' W 122°34'0 0.0
2014-Sep-16 09:33N 48°24' W 122°34'0 0.0
2014-Sep-16 08:33N 48°24' W 122°34'0 0.0
2014-Sep-16 07:33N 48°24' W 122°34'0 0.0
2014-Sep-16 06:33N 48°24' W 122°34'0 0.0
2014-Sep-16 05:33N 48°24' W 122°34'0 0.0
2014-Sep-16 04:33N 48°24' W 122°34'0 0.0
2014-Sep-16 03:32N 48°24' W 122°34'6 6.3
2014-Sep-16 02:33N 48°19' W 122°30'8 8.0
2014-Sep-16 01:30N 48°10' W 122°32'7 7.7
2014-Sep-16 00:33N 48°05' W 122°26'8 7.6
2014-Sep-15 23:30N 47°58' W 122°20'1 8.0
2014-Sep-15 23:22N 47°57' W 122°21'6 7.7
2014-Sep-15 22:33N 47°50' W 122°23'2 8.5
2014-Sep-15 22:22N 47°49' W 122°24'7 8.5
2014-Sep-15 21:33N 47°42' W 122°26'5 4.3
2014-Sep-15 20:26N 47°38' W 122°23'0 0.0
2014-Sep-15 19:33N 47°38' W 122°23'0 0.0
2014-Sep-15 18:26N 47°38' W 122°23'0 0.0
2014-Sep-15 16:33N 47°38' W 122°23'0 0.0
2014-Sep-15 16:25N 47°38' W 122°23'0 0.0
2014-Sep-15 15:33N 47°38' W 122°23'0 0.0
2014-Sep-15 15:30N 47°38' W 122°23'0 0.0
2014-Sep-15 14:33N 47°38' W 122°23'0 0.0
2014-Sep-15 14:30N 47°38' W 122°23'0 0.0
2014-Sep-15 13:33N 47°38' W 122°23'0 0.0
2014-Sep-15 13:25N 47°38' W 122°23'0 0.0
2014-Sep-15 12:33N 47°38' W 122°23'0 0.0
2014-Sep-15 12:30N 47°38' W 122°23'0 0.0
2014-Sep-15 11:33N 47°38' W 122°23'0 0.0
2014-Sep-15 11:30N 47°38' W 122°23'0 0.0
2014-Sep-15 10:33N 47°38' W 122°23'0 0.0
2014-Sep-15 10:30N 47°38' W 122°23'0 0.0
2014-Sep-15 09:33N 47°38' W 122°23'0 0.0
2014-Sep-15 09:30N 47°38' W 122°23'0 0.0
2014-Sep-15 08:33N 47°38' W 122°23'0 0.0
2014-Sep-15 08:29N 47°38' W 122°23'0 0.0
2014-Sep-15 07:33N 47°38' W 122°23'0 0.0
2014-Sep-15 07:30N 47°38' W 122°23'0 0.0
2014-Sep-15 06:33N 47°38' W 122°23'0 0.0
2014-Sep-15 06:30N 47°38' W 122°23'0 0.0
2014-Sep-15 06:00N 47°38' W 122°23'0 0.0
2014-Sep-15 05:33N 47°38' W 122°23'0 0.0
2014-Sep-15 04:33N 47°38' W 122°23'0 0.0
2014-Sep-15 04:29N 47°38' W 122°23'0 0.0
2014-Sep-15 03:33N 47°38' W 122°23'0 0.0
2014-Sep-15 03:29N 47°38' W 122°23'0 0.0
2014-Sep-15 02:33N 47°38' W 122°23'0 0.0
2014-Sep-15 02:29N 47°38' W 122°23'0 0.0
2014-Sep-15 01:33N 47°38' W 122°23'0 0.1
2014-Sep-15 01:28N 47°38' W 122°23'0 0.0
2014-Sep-15 00:33N 47°38' W 122°23'0 0.0
2014-Sep-15 00:29N 47°38' W 122°23'0 0.0
2014-Sep-14 23:33N 47°38' W 122°23'0 0.0
2014-Sep-14 23:29N 47°38' W 122°23'2 2.4
2014-Sep-14 22:33N 47°36' W 122°25'1 7.7
2014-Sep-14 22:29N 47°36' W 122°26'4 4.5
2014-Sep-14 21:33N 47°35' W 122°32'0 0.0
2014-Sep-14 21:23N 47°35' W 122°32'0 0.0
2014-Sep-14 20:33N 47°35' W 122°32'0 0.0
2014-Sep-14 20:33N 47°35' W 122°32'0 0.0
2014-Sep-14 19:33N 47°35' W 122°32'0 0.0
2014-Sep-14 19:33N 47°35' W 122°32'0 0.0
2014-Sep-14 18:33N 47°35' W 122°32'0 0.0
2014-Sep-14 18:33N 47°35' W 122°32'0 0.0
2014-Sep-14 17:33N 47°35' W 122°32'0 0.0
2014-Sep-14 17:33N 47°35' W 122°32'0 0.0
2014-Sep-14 16:33N 47°35' W 122°32'0 0.0
2014-Sep-14 15:33N 47°35' W 122°32'0 0.0
2014-Sep-14 14:33N 47°35' W 122°32'6 5.9
2014-Sep-14 13:32N 47°37' W 122°24'1 0.9
2014-Sep-14 12:33N 47°38' W 122°23'0 0.0
2014-Sep-14 11:33N 47°38' W 122°23'0 0.0
2014-Sep-14 10:33N 47°38' W 122°23'0 0.0
2014-Sep-14 09:33N 47°38' W 122°23'0 0.0
2014-Sep-14 08:33N 47°38' W 122°23'0 0.0
2014-Sep-14 07:33N 47°38' W 122°23'0 0.0
2014-Sep-14 06:33N 47°38' W 122°23'0 0.0
2014-Sep-14 05:33N 47°38' W 122°23'0 0.0
2014-Sep-14 04:33N 47°38' W 122°23'0 0.0
2014-Sep-14 03:33N 47°38' W 122°23'0 0.0
2014-Sep-14 02:33N 47°38' W 122°23'0 0.0
2014-Sep-14 01:33N 47°38' W 122°23'0 0.0
2014-Sep-13 21:33N 47°38' W 122°23'0 0.0
2014-Sep-13 20:33N 47°38' W 122°23'0 0.0
2014-Sep-13 19:33N 47°38' W 122°23'0 0.0
2014-Sep-13 18:33N 47°38' W 122°23'0 0.0
2014-Sep-13 17:33N 47°38' W 122°23'0 0.0
2014-Sep-13 16:33N 47°38' W 122°23'0 0.0
2014-Sep-13 15:33N 47°38' W 122°23'0 0.0
2014-Sep-13 14:33N 47°38' W 122°23'0 0.0
2014-Sep-13 13:33N 47°38' W 122°23'0 0.0
2014-Sep-13 12:33N 47°38' W 122°23'0 0.0
2014-Sep-13 11:33N 47°38' W 122°23'0 0.0
2014-Sep-13 10:33N 47°38' W 122°23'0 0.0
2014-Sep-13 09:33N 47°38' W 122°23'0 0.0
2014-Sep-13 08:33N 47°38' W 122°23'0 0.0
2014-Sep-13 07:33N 47°38' W 122°23'0 0.0
2014-Sep-13 06:33N 47°38' W 122°23'0 0.0
2014-Sep-13 05:33N 47°38' W 122°23'0 0.0
2014-Sep-13 04:33N 47°38' W 122°23'0 0.0
2014-Sep-13 03:33N 47°38' W 122°23'0 0.0
2014-Sep-13 02:33N 47°38' W 122°23'0 0.0
2014-Sep-13 01:33N 47°38' W 122°23'0 0.0
2014-Sep-13 00:33N 47°38' W 122°23'0 0.0
2014-Sep-12 23:33N 47°38' W 122°23'0 0.0
2014-Sep-12 22:33N 47°38' W 122°23'0 0.0
2014-Sep-12 21:33N 47°38' W 122°23'0 0.0
2014-Sep-12 20:33N 47°38' W 122°23'5 4.9
2014-Sep-12 19:33N 47°35' W 122°28'2 2.1
2014-Sep-12 18:33N 47°34' W 122°31'7 6.7
2014-Sep-12 17:33N 47°38' W 122°23'0 0.1
2014-Sep-12 16:33N 47°38' W 122°23'0 0.0
2014-Sep-12 15:33N 47°38' W 122°23'0 0.0
2014-Sep-12 14:33N 47°38' W 122°23'0 0.0
2014-Sep-12 13:33N 47°38' W 122°23'0 0.0
2014-Sep-12 12:33N 47°38' W 122°23'0 0.0
2014-Sep-12 11:33N 47°38' W 122°23'0 0.0
2014-Sep-12 10:33N 47°38' W 122°23'0 0.0
2014-Sep-12 09:33N 47°38' W 122°23'0 0.0
2014-Sep-12 08:33N 47°38' W 122°23'0 0.0
2014-Sep-12 07:33N 47°38' W 122°23'0 0.0
2014-Sep-12 06:33N 47°38' W 122°23'0 0.0
2014-Sep-12 05:33N 47°38' W 122°23'0 0.0
2014-Sep-12 04:33N 47°38' W 122°23'0 0.0
2014-Sep-12 03:33N 47°38' W 122°23'0 0.0
2014-Sep-12 02:33N 47°38' W 122°23'0 0.0
2014-Sep-12 01:33N 47°38' W 122°23'0 0.0
2014-Sep-12 00:33N 47°38' W 122°23'5 5.1
2014-Sep-11 23:33N 47°35' W 122°29'2 1.9
2014-Sep-11 22:33N 47°35' W 122°32'0 0.0
2014-Sep-11 21:33N 47°35' W 122°32'0 0.0
2014-Sep-11 20:33N 47°35' W 122°32'0 0.0
2014-Sep-11 19:32N 47°35' W 122°32'0 0.0
2014-Sep-11 18:33N 47°35' W 122°32'0 0.0
2014-Sep-11 17:33N 47°35' W 122°32'0 0.0
2014-Sep-11 16:33N 47°35' W 122°32'0 0.0
2014-Sep-11 15:33N 47°35' W 122°32'0 0.0
2014-Sep-11 14:33N 47°35' W 122°32'3 2.6
2014-Sep-11 13:33N 47°35' W 122°28'4 4.4
2014-Sep-11 12:33N 47°38' W 122°23'0 0.0
2014-Sep-11 11:33N 47°38' W 122°23'0 0.0
2014-Sep-11 10:33N 47°38' W 122°23'0 0.0
2014-Sep-11 09:33N 47°38' W 122°23'0 0.0
2014-Sep-11 08:33N 47°38' W 122°23'0 0.0
2014-Sep-11 07:33N 47°38' W 122°23'0 0.0
2014-Sep-11 06:33N 47°38' W 122°23'0 0.0
2014-Sep-11 05:33N 47°38' W 122°23'0 0.0
2014-Sep-11 04:33N 47°38' W 122°23'0 0.0
2014-Sep-11 03:33N 47°38' W 122°23'0 0.0
2014-Sep-11 02:33N 47°38' W 122°23'0 0.0
2014-Sep-11 01:33N 47°38' W 122°23'0 0.0
2014-Sep-11 00:33N 47°38' W 122°23'0 0.0
2014-Sep-10 23:33N 47°38' W 122°23'0 0.0
2014-Sep-10 22:33N 47°38' W 122°23'0 0.0
2014-Sep-10 21:33N 47°38' W 122°23'0 0.0
2014-Sep-10 20:33N 47°38' W 122°23'0 0.0
2014-Sep-10 19:33N 47°38' W 122°23'0 0.0
2014-Sep-10 18:33N 47°38' W 122°23'0 0.0
2014-Sep-10 17:33N 47°38' W 122°23'0 0.1
2014-Sep-10 16:33N 47°38' W 122°23'0 0.0
2014-Sep-10 15:33N 47°38' W 122°23'0 0.0
2014-Sep-10 14:33N 47°38' W 122°23'0 0.0
2014-Sep-10 13:33N 47°38' W 122°23'0 0.0
2014-Sep-10 12:33N 47°38' W 122°23'0 0.0
2014-Sep-10 11:33N 47°38' W 122°23'0 0.0
2014-Sep-10 10:34N 47°38' W 122°23'0 0.0
2014-Sep-10 09:33N 47°38' W 122°23'0 0.0
2014-Sep-10 08:33N 47°38' W 122°23'0 0.0
2014-Sep-10 07:33N 47°38' W 122°23'0 0.0
2014-Sep-10 06:33N 47°38' W 122°23'0 0.0
2014-Sep-10 05:33N 47°38' W 122°23'0 0.0
2014-Sep-10 04:33N 47°38' W 122°23'0 0.0
2014-Sep-10 03:33N 47°38' W 122°23'0 0.0
2014-Sep-10 02:33N 47°38' W 122°23'0 0.0
2014-Sep-10 01:33N 47°38' W 122°23'0 0.1
2014-Sep-10 00:33N 47°38' W 122°23'0 0.0
2014-Sep-09 23:33N 47°38' W 122°23'0 0.0
2014-Sep-09 22:33N 47°38' W 122°23'4 3.5
2014-Sep-09 21:33N 47°36' W 122°27'3 3.3
2014-Sep-09 20:33N 47°35' W 122°32'0 0.0
2014-Sep-09 19:33N 47°35' W 122°32'0 0.0
2014-Sep-09 18:33N 47°35' W 122°32'0 0.0
2014-Sep-09 17:33N 47°35' W 122°32'0 0.0
2014-Sep-09 16:33N 47°35' W 122°32'0 0.0
2014-Sep-09 15:33N 47°35' W 122°32'0 0.0
2014-Sep-09 14:33N 47°35' W 122°32'3 2.7
2014-Sep-09 13:33N 47°35' W 122°28'4 4.1
2014-Sep-09 12:33N 47°38' W 122°23'0 0.0
2014-Sep-09 11:33N 47°38' W 122°23'0 0.0
2014-Sep-09 10:33N 47°38' W 122°23'0 0.0
2014-Sep-09 09:33N 47°38' W 122°23'0 0.0
2014-Sep-09 08:33N 47°38' W 122°23'0 0.0
2014-Sep-09 07:33N 47°38' W 122°23'0 0.0
2014-Sep-09 06:32N 47°38' W 122°23'0 0.0
2014-Sep-09 05:33N 47°38' W 122°23'0 0.0
2014-Sep-09 04:33N 47°38' W 122°23'0 0.0
2014-Sep-09 03:33N 47°38' W 122°23'0 0.0
2014-Sep-09 02:33N 47°38' W 122°23'0 0.0
2014-Sep-09 01:33N 47°38' W 122°23'0 0.0
2014-Sep-09 00:33N 47°38' W 122°23'0 0.0
2014-Sep-08 23:33N 47°38' W 122°23'0 0.0
2014-Sep-08 22:33N 47°38' W 122°23'0 0.0
2014-Sep-08 21:33N 47°38' W 122°23'0 0.0
2014-Sep-08 20:33N 47°38' W 122°23'0 0.0
2014-Sep-08 19:33N 47°38' W 122°23'0 0.0
2014-Sep-08 18:33N 47°38' W 122°23'0 0.0
2014-Sep-08 17:33N 47°38' W 122°23'0 0.0
2014-Sep-08 16:33N 47°38' W 122°23'0 0.1
2014-Sep-08 15:33N 47°38' W 122°23'0 0.0
2014-Sep-08 14:33N 47°38' W 122°23'0 0.0
2014-Sep-08 13:33N 47°38' W 122°23'0 0.0
2014-Sep-08 12:33N 47°38' W 122°23'0 0.0
2014-Sep-08 11:33N 47°38' W 122°23'0 0.0
2014-Sep-08 10:33N 47°38' W 122°23'0 0.0
2014-Sep-08 09:33N 47°38' W 122°23'0 0.0
2014-Sep-08 08:33N 47°38' W 122°23'0 0.0
2014-Sep-08 07:33N 47°38' W 122°23'0 0.0
2014-Sep-08 06:33N 47°38' W 122°23'0 0.0
2014-Sep-08 05:33N 47°38' W 122°23'0 0.0
2014-Sep-08 04:33N 47°38' W 122°23'0 0.0
2014-Sep-08 03:33N 47°38' W 122°23'0 0.0
2014-Sep-08 02:33N 47°38' W 122°23'0 0.0
2014-Sep-08 01:33N 47°38' W 122°23'0 0.0
2014-Sep-08 00:33N 47°38' W 122°23'0 0.0
2014-Sep-07 23:33N 47°38' W 122°23'0 0.0
2014-Sep-07 22:34N 47°38' W 122°23'5 5.0
2014-Sep-07 21:34N 47°35' W 122°29'2 2.0
2014-Sep-07 20:33N 47°35' W 122°32'0 0.0
2014-Sep-07 19:33N 47°35' W 122°32'0 0.0
2014-Sep-07 18:33N 47°35' W 122°32'0 0.0
2014-Sep-07 17:33N 47°35' W 122°32'0 0.0
2014-Sep-07 16:33N 47°35' W 122°32'0 0.0
2014-Sep-07 15:33N 47°35' W 122°32'0 0.0
2014-Sep-07 14:33N 47°35' W 122°32'2 2.1
2014-Sep-07 13:33N 47°35' W 122°29'5 4.7
2014-Sep-07 12:32N 47°38' W 122°23'0 0.0
2014-Sep-07 11:33N 47°38' W 122°23'0 0.0
2014-Sep-07 10:33N 47°38' W 122°23'0 0.0
2014-Sep-07 09:33N 47°38' W 122°23'0 0.0
2014-Sep-07 08:33N 47°38' W 122°23'0 0.0
2014-Sep-07 07:33N 47°38' W 122°23'0 0.0
2014-Sep-07 06:33N 47°38' W 122°23'0 0.0
2014-Sep-07 05:33N 47°38' W 122°23'0 0.0
2014-Sep-07 04:33N 47°38' W 122°23'0 0.0
2014-Sep-07 03:33N 47°38' W 122°23'0 0.0
2014-Sep-07 02:33N 47°38' W 122°23'0 0.0
2014-Sep-07 01:33N 47°38' W 122°23'0 0.0
2014-Sep-07 00:33N 47°38' W 122°23'0 0.0
2014-Sep-06 23:33N 47°38' W 122°23'0 0.0
2014-Sep-06 22:33N 47°38' W 122°23'0 0.0
2014-Sep-06 21:33N 47°38' W 122°23'0 0.0
2014-Sep-06 20:33N 47°38' W 122°23'0 0.0
2014-Sep-06 19:33N 47°38' W 122°23'0 0.0
2014-Sep-06 18:33N 47°38' W 122°23'0 0.0
2014-Sep-06 17:33N 47°38' W 122°23'0 0.0
2014-Sep-06 16:33N 47°38' W 122°23'0 0.0
2014-Sep-06 15:33N 47°38' W 122°23'0 0.0
2014-Sep-06 14:33N 47°38' W 122°23'0 0.0
2014-Sep-06 13:33N 47°38' W 122°23'0 0.0
2014-Sep-06 12:33N 47°38' W 122°23'0 0.0
2014-Sep-06 11:33N 47°38' W 122°23'0 0.0
2014-Sep-06 10:33N 47°38' W 122°23'  

Dump ship's entire track history